sensor_id;sensor_type;location;lat;lon;timestamp;P1;durP1;ratioP1;P2;durP2;ratioP2
83560;SDS011;73534;52.584;13.392;2023-12-14T00:01:29;29.63;;;15.32;;
83560;SDS011;73534;52.584;13.392;2023-12-14T00:03:55;31.80;;;15.52;;
83560;SDS011;73534;52.584;13.392;2023-12-14T00:06:20;28.63;;;14.27;;
83560;SDS011;73534;52.584;13.392;2023-12-14T00:08:45;30.35;;;15.00;;
83560;SDS011;73534;52.584;13.392;2023-12-14T00:11:11;30.92;;;14.27;;
83560;SDS011;73534;52.584;13.392;2023-12-14T00:13:36;27.02;;;14.82;;
83560;SDS011;73534;52.584;13.392;2023-12-14T00:16:02;27.80;;;14.57;;
83560;SDS011;73534;52.584;13.392;2023-12-14T00:18:27;26.92;;;13.93;;
83560;SDS011;73534;52.584;13.392;2023-12-14T00:20:53;33.70;;;14.73;;
83560;SDS011;73534;52.584;13.392;2023-12-14T00:23:19;31.00;;;15.93;;
83560;SDS011;73534;52.584;13.392;2023-12-14T00:25:44;33.10;;;14.88;;
83560;SDS011;73534;52.584;13.392;2023-12-14T00:28:09;38.08;;;16.52;;
83560;SDS011;73534;52.584;13.392;2023-12-14T00:30:35;35.17;;;15.50;;
83560;SDS011;73534;52.584;13.392;2023-12-14T00:33:00;28.80;;;14.57;;
83560;SDS011;73534;52.584;13.392;2023-12-14T00:35:25;30.30;;;13.57;;
83560;SDS011;73534;52.584;13.392;2023-12-14T00:37:51;36.47;;;14.10;;
83560;SDS011;73534;52.584;13.392;2023-12-14T00:40:16;31.77;;;15.15;;
83560;SDS011;73534;52.584;13.392;2023-12-14T00:42:41;28.52;;;14.75;;
83560;SDS011;73534;52.584;13.392;2023-12-14T00:45:07;32.53;;;13.40;;
83560;SDS011;73534;52.584;13.392;2023-12-14T00:47:32;33.13;;;14.85;;
83560;SDS011;73534;52.584;13.392;2023-12-14T00:49:58;28.20;;;14.13;;
83560;SDS011;73534;52.584;13.392;2023-12-14T00:52:23;28.20;;;13.27;;
83560;SDS011;73534;52.584;13.392;2023-12-14T00:54:48;32.45;;;15.40;;
83560;SDS011;73534;52.584;13.392;2023-12-14T00:57:14;38.40;;;15.20;;
83560;SDS011;73534;52.584;13.392;2023-12-14T00:59:39;28.13;;;13.75;;
83560;SDS011;73534;52.584;13.392;2023-12-14T01:02:05;28.77;;;14.20;;
83560;SDS011;73534;52.584;13.392;2023-12-14T01:04:30;31.63;;;13.52;;
83560;SDS011;73534;52.584;13.392;2023-12-14T01:06:56;27.33;;;14.35;;
83560;SDS011;73534;52.584;13.392;2023-12-14T01:09:21;25.88;;;13.98;;
83560;SDS011;73534;52.584;13.392;2023-12-14T01:11:46;26.60;;;13.57;;
83560;SDS011;73534;52.584;13.392;2023-12-14T01:14:12;24.88;;;14.57;;
83560;SDS011;73534;52.584;13.392;2023-12-14T01:16:37;27.65;;;14.20;;
83560;SDS011;73534;52.584;13.392;2023-12-14T01:19:03;20.52;;;11.13;;
83560;SDS011;73534;52.584;13.392;2023-12-14T01:21:30;19.05;;;10.35;;
83560;SDS011;73534;52.584;13.392;2023-12-14T01:23:55;20.30;;;10.98;;
83560;SDS011;73534;52.584;13.392;2023-12-14T01:26:21;19.20;;;11.00;;
83560;SDS011;73534;52.584;13.392;2023-12-14T01:28:46;22.45;;;11.52;;
83560;SDS011;73534;52.584;13.392;2023-12-14T01:31:11;20.45;;;11.77;;
83560;SDS011;73534;52.584;13.392;2023-12-14T01:33:37;19.90;;;10.65;;
83560;SDS011;73534;52.584;13.392;2023-12-14T01:36:02;21.40;;;9.55;;
83560;SDS011;73534;52.584;13.392;2023-12-14T01:38:27;18.25;;;9.43;;
83560;SDS011;73534;52.584;13.392;2023-12-14T01:40:53;21.27;;;10.35;;
83560;SDS011;73534;52.584;13.392;2023-12-14T01:43:20;22.85;;;11.45;;
83560;SDS011;73534;52.584;13.392;2023-12-14T01:45:46;22.10;;;12.05;;
83560;SDS011;73534;52.584;13.392;2023-12-14T01:48:11;25.27;;;11.73;;
83560;SDS011;73534;52.584;13.392;2023-12-14T01:50:36;25.02;;;13.00;;
83560;SDS011;73534;52.584;13.392;2023-12-14T01:53:02;24.05;;;12.05;;
83560;SDS011;73534;52.584;13.392;2023-12-14T01:55:27;21.58;;;12.05;;
83560;SDS011;73534;52.584;13.392;2023-12-14T01:57:52;23.58;;;12.77;;
83560;SDS011;73534;52.584;13.392;2023-12-14T02:00:38;24.95;;;12.85;;
83560;SDS011;73534;52.584;13.392;2023-12-14T02:03:07;23.90;;;12.40;;
83560;SDS011;73534;52.584;13.392;2023-12-14T02:05:32;24.80;;;11.80;;
83560;SDS011;73534;52.584;13.392;2023-12-14T02:07:57;25.95;;;13.23;;
83560;SDS011;73534;52.584;13.392;2023-12-14T02:10:23;25.13;;;12.52;;
83560;SDS011;73534;52.584;13.392;2023-12-14T02:12:48;25.30;;;13.50;;
83560;SDS011;73534;52.584;13.392;2023-12-14T02:15:14;23.83;;;12.70;;
83560;SDS011;73534;52.584;13.392;2023-12-14T02:17:39;25.30;;;11.90;;
83560;SDS011;73534;52.584;13.392;2023-12-14T02:20:04;26.50;;;12.30;;
83560;SDS011;73534;52.584;13.392;2023-12-14T02:22:35;21.60;;;12.18;;
83560;SDS011;73534;52.584;13.392;2023-12-14T02:25:13;24.70;;;12.95;;
83560;SDS011;73534;52.584;13.392;2023-12-14T02:27:38;26.52;;;12.50;;
83560;SDS011;73534;52.584;13.392;2023-12-14T02:30:03;23.48;;;13.13;;
83560;SDS011;73534;52.584;13.392;2023-12-14T02:32:29;24.98;;;12.35;;
83560;SDS011;73534;52.584;13.392;2023-12-14T02:34:55;21.63;;;11.85;;
83560;SDS011;73534;52.584;13.392;2023-12-14T02:37:20;26.80;;;13.23;;
83560;SDS011;73534;52.584;13.392;2023-12-14T02:39:45;23.52;;;12.38;;
83560;SDS011;73534;52.584;13.392;2023-12-14T02:42:12;25.42;;;12.65;;
83560;SDS011;73534;52.584;13.392;2023-12-14T02:44:37;22.77;;;12.52;;
83560;SDS011;73534;52.584;13.392;2023-12-14T02:47:02;23.27;;;11.90;;
83560;SDS011;73534;52.584;13.392;2023-12-14T02:49:28;20.70;;;10.73;;
83560;SDS011;73534;52.584;13.392;2023-12-14T02:51:53;19.98;;;12.15;;
83560;SDS011;73534;52.584;13.392;2023-12-14T02:54:19;23.35;;;13.05;;
83560;SDS011;73534;52.584;13.392;2023-12-14T02:56:44;25.25;;;13.20;;
83560;SDS011;73534;52.584;13.392;2023-12-14T02:59:09;25.25;;;13.30;;
83560;SDS011;73534;52.584;13.392;2023-12-14T03:01:34;25.23;;;13.77;;
83560;SDS011;73534;52.584;13.392;2023-12-14T03:04:00;25.60;;;12.43;;
83560;SDS011;73534;52.584;13.392;2023-12-14T03:06:25;28.10;;;14.68;;
83560;SDS011;73534;52.584;13.392;2023-12-14T03:08:50;24.55;;;12.27;;
83560;SDS011;73534;52.584;13.392;2023-12-14T03:11:22;25.95;;;13.60;;
83560;SDS011;73534;52.584;13.392;2023-12-14T03:13:51;27.42;;;13.68;;
83560;SDS011;73534;52.584;13.392;2023-12-14T03:16:16;24.52;;;13.93;;
83560;SDS011;73534;52.584;13.392;2023-12-14T03:18:42;26.48;;;13.80;;
83560;SDS011;73534;52.584;13.392;2023-12-14T03:21:07;25.25;;;12.90;;
83560;SDS011;73534;52.584;13.392;2023-12-14T03:23:33;25.90;;;14.07;;
83560;SDS011;73534;52.584;13.392;2023-12-14T03:25:58;25.77;;;13.65;;
83560;SDS011;73534;52.584;13.392;2023-12-14T03:28:23;25.05;;;13.32;;
83560;SDS011;73534;52.584;13.392;2023-12-14T03:30:49;21.00;;;11.88;;
83560;SDS011;73534;52.584;13.392;2023-12-14T03:33:14;18.88;;;10.52;;
83560;SDS011;73534;52.584;13.392;2023-12-14T03:35:39;17.58;;;10.52;;
83560;SDS011;73534;52.584;13.392;2023-12-14T03:40:32;13.93;;;9.53;;
83560;SDS011;73534;52.584;13.392;2023-12-14T03:42:57;19.15;;;10.85;;
83560;SDS011;73534;52.584;13.392;2023-12-14T03:45:22;17.77;;;10.38;;
83560;SDS011;73534;52.584;13.392;2023-12-14T03:47:48;19.70;;;11.80;;
83560;SDS011;73534;52.584;13.392;2023-12-14T03:50:13;20.38;;;11.57;;
83560;SDS011;73534;52.584;13.392;2023-12-14T03:52:38;19.05;;;11.88;;
83560;SDS011;73534;52.584;13.392;2023-12-14T03:55:04;19.92;;;11.65;;
83560;SDS011;73534;52.584;13.392;2023-12-14T03:57:29;19.50;;;11.35;;
83560;SDS011;73534;52.584;13.392;2023-12-14T03:59:54;19.38;;;11.00;;
83560;SDS011;73534;52.584;13.392;2023-12-14T04:02:20;21.48;;;12.35;;
83560;SDS011;73534;52.584;13.392;2023-12-14T04:04:45;22.05;;;12.23;;
83560;SDS011;73534;52.584;13.392;2023-12-14T04:07:12;19.85;;;11.82;;
83560;SDS011;73534;52.584;13.392;2023-12-14T04:09:37;20.52;;;11.35;;
83560;SDS011;73534;52.584;13.392;2023-12-14T04:12:02;20.25;;;11.45;;
83560;SDS011;73534;52.584;13.392;2023-12-14T04:14:28;18.55;;;10.82;;
83560;SDS011;73534;52.584;13.392;2023-12-14T04:16:54;21.17;;;11.23;;
83560;SDS011;73534;52.584;13.392;2023-12-14T04:19:19;20.55;;;11.48;;
83560;SDS011;73534;52.584;13.392;2023-12-14T04:21:44;21.92;;;11.77;;
83560;SDS011;73534;52.584;13.392;2023-12-14T04:24:10;20.95;;;12.15;;
83560;SDS011;73534;52.584;13.392;2023-12-14T04:26:37;22.00;;;11.52;;
83560;SDS011;73534;52.584;13.392;2023-12-14T04:29:02;23.90;;;13.02;;
83560;SDS011;73534;52.584;13.392;2023-12-14T04:31:28;22.33;;;12.40;;
83560;SDS011;73534;52.584;13.392;2023-12-14T04:33:53;20.63;;;12.23;;
83560;SDS011;73534;52.584;13.392;2023-12-14T04:36:18;23.10;;;11.48;;
83560;SDS011;73534;52.584;13.392;2023-12-14T04:38:44;19.98;;;10.93;;
83560;SDS011;73534;52.584;13.392;2023-12-14T04:41:11;18.08;;;10.68;;
83560;SDS011;73534;52.584;13.392;2023-12-14T04:43:36;20.23;;;11.35;;
83560;SDS011;73534;52.584;13.392;2023-12-14T04:46:01;19.33;;;11.43;;
83560;SDS011;73534;52.584;13.392;2023-12-14T04:48:27;24.90;;;13.55;;
83560;SDS011;73534;52.584;13.392;2023-12-14T04:50:52;19.85;;;11.55;;
83560;SDS011;73534;52.584;13.392;2023-12-14T04:53:18;18.42;;;11.30;;
83560;SDS011;73534;52.584;13.392;2023-12-14T04:55:43;19.80;;;11.57;;
83560;SDS011;73534;52.584;13.392;2023-12-14T04:58:08;22.25;;;12.85;;
83560;SDS011;73534;52.584;13.392;2023-12-14T05:00:34;22.65;;;12.68;;
83560;SDS011;73534;52.584;13.392;2023-12-14T05:02:59;21.33;;;12.73;;
83560;SDS011;73534;52.584;13.392;2023-12-14T05:05:24;23.67;;;12.70;;
83560;SDS011;73534;52.584;13.392;2023-12-14T05:07:49;22.60;;;12.82;;
83560;SDS011;73534;52.584;13.392;2023-12-14T05:10:15;22.65;;;13.13;;
83560;SDS011;73534;52.584;13.392;2023-12-14T05:12:40;22.17;;;12.65;;
83560;SDS011;73534;52.584;13.392;2023-12-14T05:15:06;22.98;;;12.43;;
83560;SDS011;73534;52.584;13.392;2023-12-14T05:17:31;19.92;;;12.88;;
83560;SDS011;73534;52.584;13.392;2023-12-14T05:19:57;26.55;;;12.90;;
83560;SDS011;73534;52.584;13.392;2023-12-14T05:22:23;21.52;;;13.40;;
83560;SDS011;73534;52.584;13.392;2023-12-14T05:24:48;22.70;;;14.27;;
83560;SDS011;73534;52.584;13.392;2023-12-14T05:27:14;21.83;;;12.57;;
83560;SDS011;73534;52.584;13.392;2023-12-14T05:29:39;23.80;;;13.70;;
83560;SDS011;73534;52.584;13.392;2023-12-14T05:32:05;21.50;;;11.60;;
83560;SDS011;73534;52.584;13.392;2023-12-14T05:34:30;22.17;;;13.00;;
83560;SDS011;73534;52.584;13.392;2023-12-14T05:36:55;18.95;;;11.32;;
83560;SDS011;73534;52.584;13.392;2023-12-14T05:39:21;20.90;;;12.63;;
83560;SDS011;73534;52.584;13.392;2023-12-14T05:41:46;18.77;;;11.48;;
83560;SDS011;73534;52.584;13.392;2023-12-14T05:44:11;22.25;;;13.27;;
83560;SDS011;73534;52.584;13.392;2023-12-14T05:46:38;23.52;;;12.63;;
83560;SDS011;73534;52.584;13.392;2023-12-14T05:49:03;20.63;;;12.93;;
83560;SDS011;73534;52.584;13.392;2023-12-14T05:51:29;22.25;;;12.98;;
83560;SDS011;73534;52.584;13.392;2023-12-14T05:53:54;18.50;;;10.98;;
83560;SDS011;73534;52.584;13.392;2023-12-14T05:56:20;21.35;;;12.18;;
83560;SDS011;73534;52.584;13.392;2023-12-14T05:58:45;18.98;;;11.75;;
83560;SDS011;73534;52.584;13.392;2023-12-14T06:01:10;18.35;;;12.60;;
83560;SDS011;73534;52.584;13.392;2023-12-14T06:03:36;17.48;;;11.50;;
83560;SDS011;73534;52.584;13.392;2023-12-14T06:06:01;17.60;;;10.93;;
83560;SDS011;73534;52.584;13.392;2023-12-14T06:08:26;19.65;;;12.55;;
83560;SDS011;73534;52.584;13.392;2023-12-14T06:10:51;19.02;;;12.25;;
83560;SDS011;73534;52.584;13.392;2023-12-14T06:13:17;21.05;;;11.48;;
83560;SDS011;73534;52.584;13.392;2023-12-14T06:15:42;18.48;;;11.57;;
83560;SDS011;73534;52.584;13.392;2023-12-14T06:18:07;18.25;;;12.13;;
83560;SDS011;73534;52.584;13.392;2023-12-14T06:20:33;17.33;;;10.93;;
83560;SDS011;73534;52.584;13.392;2023-12-14T06:22:58;18.13;;;10.63;;
83560;SDS011;73534;52.584;13.392;2023-12-14T06:25:23;18.33;;;11.63;;
83560;SDS011;73534;52.584;13.392;2023-12-14T06:27:49;18.40;;;11.23;;
83560;SDS011;73534;52.584;13.392;2023-12-14T06:30:14;16.63;;;10.50;;
83560;SDS011;73534;52.584;13.392;2023-12-14T06:32:39;14.00;;;9.38;;
83560;SDS011;73534;52.584;13.392;2023-12-14T06:35:05;16.17;;;10.05;;
83560;SDS011;73534;52.584;13.392;2023-12-14T06:37:30;19.08;;;10.77;;
83560;SDS011;73534;52.584;13.392;2023-12-14T06:39:56;18.95;;;11.38;;
83560;SDS011;73534;52.584;13.392;2023-12-14T06:42:21;17.15;;;10.60;;
83560;SDS011;73534;52.584;13.392;2023-12-14T06:44:46;18.52;;;10.75;;
83560;SDS011;73534;52.584;13.392;2023-12-14T06:47:12;21.13;;;11.70;;
83560;SDS011;73534;52.584;13.392;2023-12-14T06:49:38;19.38;;;10.63;;
83560;SDS011;73534;52.584;13.392;2023-12-14T06:54:31;15.97;;;10.20;;
83560;SDS011;73534;52.584;13.392;2023-12-14T06:56:56;20.27;;;11.48;;
83560;SDS011;73534;52.584;13.392;2023-12-14T06:59:22;19.15;;;11.00;;
83560;SDS011;73534;52.584;13.392;2023-12-14T07:01:47;21.92;;;11.82;;
83560;SDS011;73534;52.584;13.392;2023-12-14T07:04:12;18.70;;;11.88;;
83560;SDS011;73534;52.584;13.392;2023-12-14T07:06:38;19.30;;;12.57;;
83560;SDS011;73534;52.584;13.392;2023-12-14T07:09:04;20.20;;;13.07;;
83560;SDS011;73534;52.584;13.392;2023-12-14T07:11:30;18.67;;;11.90;;
83560;SDS011;73534;52.584;13.392;2023-12-14T07:13:55;21.33;;;12.27;;
83560;SDS011;73534;52.584;13.392;2023-12-14T07:16:20;22.48;;;13.40;;
83560;SDS011;73534;52.584;13.392;2023-12-14T07:18:46;24.63;;;13.65;;
83560;SDS011;73534;52.584;13.392;2023-12-14T07:21:12;22.23;;;12.43;;
83560;SDS011;73534;52.584;13.392;2023-12-14T07:23:37;21.02;;;12.48;;
83560;SDS011;73534;52.584;13.392;2023-12-14T07:26:02;22.73;;;13.52;;
83560;SDS011;73534;52.584;13.392;2023-12-14T07:28:28;25.90;;;14.85;;
83560;SDS011;73534;52.584;13.392;2023-12-14T07:30:53;23.65;;;13.63;;
83560;SDS011;73534;52.584;13.392;2023-12-14T07:33:19;25.77;;;15.57;;
83560;SDS011;73534;52.584;13.392;2023-12-14T07:35:44;25.40;;;14.48;;
83560;SDS011;73534;52.584;13.392;2023-12-14T07:38:09;22.98;;;13.75;;
83560;SDS011;73534;52.584;13.392;2023-12-14T07:40:35;27.85;;;14.85;;
83560;SDS011;73534;52.584;13.392;2023-12-14T07:43:00;22.45;;;14.77;;
83560;SDS011;73534;52.584;13.392;2023-12-14T07:45:25;22.00;;;14.10;;
83560;SDS011;73534;52.584;13.392;2023-12-14T07:47:51;27.25;;;14.57;;
83560;SDS011;73534;52.584;13.392;2023-12-14T07:50:16;22.25;;;13.63;;
83560;SDS011;73534;52.584;13.392;2023-12-14T07:52:42;25.63;;;13.50;;
83560;SDS011;73534;52.584;13.392;2023-12-14T07:55:07;21.08;;;13.38;;
83560;SDS011;73534;52.584;13.392;2023-12-14T07:57:33;23.77;;;14.70;;
83560;SDS011;73534;52.584;13.392;2023-12-14T07:59:58;26.33;;;15.25;;
83560;SDS011;73534;52.584;13.392;2023-12-14T08:02:23;25.02;;;13.75;;
83560;SDS011;73534;52.584;13.392;2023-12-14T08:04:49;28.52;;;14.60;;
83560;SDS011;73534;52.584;13.392;2023-12-14T08:07:14;23.73;;;14.93;;
83560;SDS011;73534;52.584;13.392;2023-12-14T08:09:39;25.13;;;14.60;;
83560;SDS011;73534;52.584;13.392;2023-12-14T08:12:05;28.90;;;16.27;;
83560;SDS011;73534;52.584;13.392;2023-12-14T08:14:34;26.70;;;15.07;;
83560;SDS011;73534;52.584;13.392;2023-12-14T08:16:59;27.60;;;16.23;;
83560;SDS011;73534;52.584;13.392;2023-12-14T08:19:24;24.38;;;15.05;;
83560;SDS011;73534;52.584;13.392;2023-12-14T08:21:50;28.23;;;16.25;;
83560;SDS011;73534;52.584;13.392;2023-12-14T08:24:15;26.35;;;16.77;;
83560;SDS011;73534;52.584;13.392;2023-12-14T08:26:40;28.48;;;17.42;;
83560;SDS011;73534;52.584;13.392;2023-12-14T08:29:05;25.60;;;16.55;;
83560;SDS011;73534;52.584;13.392;2023-12-14T08:31:31;26.85;;;16.25;;
83560;SDS011;73534;52.584;13.392;2023-12-14T08:33:56;28.98;;;15.90;;
83560;SDS011;73534;52.584;13.392;2023-12-14T08:36:22;34.35;;;16.48;;
83560;SDS011;73534;52.584;13.392;2023-12-14T08:38:47;29.40;;;16.73;;
83560;SDS011;73534;52.584;13.392;2023-12-14T08:41:16;26.60;;;16.40;;
83560;SDS011;73534;52.584;13.392;2023-12-14T08:43:41;24.63;;;14.82;;
83560;SDS011;73534;52.584;13.392;2023-12-14T08:46:06;33.33;;;16.77;;
83560;SDS011;73534;52.584;13.392;2023-12-14T08:48:32;25.35;;;15.52;;
83560;SDS011;73534;52.584;13.392;2023-12-14T08:50:57;26.58;;;15.13;;
83560;SDS011;73534;52.584;13.392;2023-12-14T08:53:22;30.95;;;17.25;;
83560;SDS011;73534;52.584;13.392;2023-12-14T08:55:48;27.52;;;15.73;;
83560;SDS011;73534;52.584;13.392;2023-12-14T08:58:13;26.42;;;15.27;;
83560;SDS011;73534;52.584;13.392;2023-12-14T09:00:38;25.15;;;14.52;;
83560;SDS011;73534;52.584;13.392;2023-12-14T09:03:04;22.80;;;13.57;;
83560;SDS011;73534;52.584;13.392;2023-12-14T09:05:29;26.60;;;15.43;;
83560;SDS011;73534;52.584;13.392;2023-12-14T09:07:54;25.05;;;14.60;;
83560;SDS011;73534;52.584;13.392;2023-12-14T09:10:21;24.52;;;14.65;;
83560;SDS011;73534;52.584;13.392;2023-12-14T09:12:47;27.25;;;15.02;;
83560;SDS011;73534;52.584;13.392;2023-12-14T09:15:12;25.13;;;15.32;;
83560;SDS011;73534;52.584;13.392;2023-12-14T09:17:38;34.92;;;19.00;;
83560;SDS011;73534;52.584;13.392;2023-12-14T09:20:03;25.50;;;14.52;;
83560;SDS011;73534;52.584;13.392;2023-12-14T09:22:32;24.13;;;15.23;;
83560;SDS011;73534;52.584;13.392;2023-12-14T09:24:57;23.48;;;13.52;;
83560;SDS011;73534;52.584;13.392;2023-12-14T09:27:23;28.10;;;14.65;;
83560;SDS011;73534;52.584;13.392;2023-12-14T09:29:48;23.33;;;13.27;;
83560;SDS011;73534;52.584;13.392;2023-12-14T09:32:13;20.63;;;14.40;;
83560;SDS011;73534;52.584;13.392;2023-12-14T09:34:39;26.98;;;14.27;;
83560;SDS011;73534;52.584;13.392;2023-12-14T09:37:04;21.27;;;13.35;;
83560;SDS011;73534;52.584;13.392;2023-12-14T09:39:29;24.70;;;13.27;;
83560;SDS011;73534;52.584;13.392;2023-12-14T09:42:02;23.08;;;13.82;;
83560;SDS011;73534;52.584;13.392;2023-12-14T09:44:31;26.27;;;13.60;;
83560;SDS011;73534;52.584;13.392;2023-12-14T09:46:57;21.40;;;12.43;;
83560;SDS011;73534;52.584;13.392;2023-12-14T09:49:24;24.10;;;14.15;;
83560;SDS011;73534;52.584;13.392;2023-12-14T09:51:54;22.73;;;13.02;;
83560;SDS011;73534;52.584;13.392;2023-12-14T09:54:22;26.70;;;15.82;;
83560;SDS011;73534;52.584;13.392;2023-12-14T09:56:48;24.10;;;13.88;;
83560;SDS011;73534;52.584;13.392;2023-12-14T09:59:13;20.63;;;12.93;;
83560;SDS011;73534;52.584;13.392;2023-12-14T10:01:39;22.92;;;13.68;;
83560;SDS011;73534;52.584;13.392;2023-12-14T10:04:11;23.38;;;13.82;;
83560;SDS011;73534;52.584;13.392;2023-12-14T10:06:40;26.17;;;14.73;;
83560;SDS011;73534;52.584;13.392;2023-12-14T10:09:07;24.02;;;14.57;;
83560;SDS011;73534;52.584;13.392;2023-12-14T10:14:00;25.70;;;13.80;;
83560;SDS011;73534;52.584;13.392;2023-12-14T10:16:31;23.52;;;13.73;;
83560;SDS011;73534;52.584;13.392;2023-12-14T10:18:57;24.70;;;13.70;;
83560;SDS011;73534;52.584;13.392;2023-12-14T10:21:24;25.02;;;14.77;;
83560;SDS011;73534;52.584;13.392;2023-12-14T10:23:50;25.63;;;14.68;;
83560;SDS011;73534;52.584;13.392;2023-12-14T10:26:16;25.23;;;13.70;;
83560;SDS011;73534;52.584;13.392;2023-12-14T10:28:41;23.50;;;13.82;;
83560;SDS011;73534;52.584;13.392;2023-12-14T10:31:06;23.92;;;13.13;;
83560;SDS011;73534;52.584;13.392;2023-12-14T10:33:32;23.70;;;14.30;;
83560;SDS011;73534;52.584;13.392;2023-12-14T10:35:57;21.98;;;13.00;;
83560;SDS011;73534;52.584;13.392;2023-12-14T10:38:22;22.17;;;14.18;;
83560;SDS011;73534;52.584;13.392;2023-12-14T10:40:49;21.15;;;13.65;;
83560;SDS011;73534;52.584;13.392;2023-12-14T10:43:16;25.45;;;14.60;;
83560;SDS011;73534;52.584;13.392;2023-12-14T10:45:41;24.67;;;14.38;;
83560;SDS011;73534;52.584;13.392;2023-12-14T10:48:08;23.35;;;13.15;;
83560;SDS011;73534;52.584;13.392;2023-12-14T10:50:34;25.65;;;14.75;;
83560;SDS011;73534;52.584;13.392;2023-12-14T10:53:01;22.50;;;13.30;;
83560;SDS011;73534;52.584;13.392;2023-12-14T10:55:31;22.17;;;13.13;;
83560;SDS011;73534;52.584;13.392;2023-12-14T10:58:02;22.48;;;13.65;;
83560;SDS011;73534;52.584;13.392;2023-12-14T11:00:28;24.90;;;14.35;;
83560;SDS011;73534;52.584;13.392;2023-12-14T11:02:53;24.73;;;13.75;;
83560;SDS011;73534;52.584;13.392;2023-12-14T11:05:19;23.67;;;15.80;;
83560;SDS011;73534;52.584;13.392;2023-12-14T11:07:55;23.70;;;14.73;;
83560;SDS011;73534;52.584;13.392;2023-12-14T11:10:24;20.52;;;11.88;;
83560;SDS011;73534;52.584;13.392;2023-12-14T11:12:55;22.75;;;12.82;;
83560;SDS011;73534;52.584;13.392;2023-12-14T11:15:28;22.20;;;13.55;;
83560;SDS011;73534;52.584;13.392;2023-12-14T11:25:58;20.35;;;13.18;;
83560;SDS011;73534;52.584;13.392;2023-12-14T11:28:24;21.00;;;13.60;;
83560;SDS011;73534;52.584;13.392;2023-12-14T11:30:50;22.23;;;12.15;;
83560;SDS011;73534;52.584;13.392;2023-12-14T11:33:16;20.60;;;12.25;;
83560;SDS011;73534;52.584;13.392;2023-12-14T11:35:41;20.70;;;13.10;;
83560;SDS011;73534;52.584;13.392;2023-12-14T11:38:06;23.48;;;12.95;;
83560;SDS011;73534;52.584;13.392;2023-12-14T11:40:44;19.38;;;11.55;;
83560;SDS011;73534;52.584;13.392;2023-12-14T11:43:10;20.95;;;12.20;;
83560;SDS011;73534;52.584;13.392;2023-12-14T11:45:35;18.58;;;12.07;;
83560;SDS011;73534;52.584;13.392;2023-12-14T11:48:09;19.10;;;12.82;;
83560;SDS011;73534;52.584;13.392;2023-12-14T11:50:39;18.73;;;10.90;;
83560;SDS011;73534;52.584;13.392;2023-12-14T11:53:06;18.67;;;12.52;;
83560;SDS011;73534;52.584;13.392;2023-12-14T11:55:32;17.90;;;11.55;;
83560;SDS011;73534;52.584;13.392;2023-12-14T12:00:28;17.73;;;11.03;;
83560;SDS011;73534;52.584;13.392;2023-12-14T12:05:45;18.50;;;12.57;;
83560;SDS011;73534;52.584;13.392;2023-12-14T12:08:12;16.73;;;11.30;;
83560;SDS011;73534;52.584;13.392;2023-12-14T12:10:38;21.00;;;11.32;;
83560;SDS011;73534;52.584;13.392;2023-12-14T12:13:05;18.88;;;11.43;;
83560;SDS011;73534;52.584;13.392;2023-12-14T12:15:35;17.65;;;10.90;;
83560;SDS011;73534;52.584;13.392;2023-12-14T12:18:11;19.80;;;12.32;;
83560;SDS011;73534;52.584;13.392;2023-12-14T12:20:38;18.58;;;11.65;;
83560;SDS011;73534;52.584;13.392;2023-12-14T12:23:03;15.82;;;11.32;;
83560;SDS011;73534;52.584;13.392;2023-12-14T12:25:28;17.10;;;11.57;;
83560;SDS011;73534;52.584;13.392;2023-12-14T12:27:55;17.35;;;11.70;;
83560;SDS011;73534;52.584;13.392;2023-12-14T12:30:21;17.08;;;12.07;;
83560;SDS011;73534;52.584;13.392;2023-12-14T12:32:48;18.33;;;12.13;;
83560;SDS011;73534;52.584;13.392;2023-12-14T12:35:13;18.98;;;12.70;;
83560;SDS011;73534;52.584;13.392;2023-12-14T12:37:38;19.95;;;14.13;;
83560;SDS011;73534;52.584;13.392;2023-12-14T12:40:04;18.65;;;12.50;;
83560;SDS011;73534;52.584;13.392;2023-12-14T12:42:30;19.15;;;13.27;;
83560;SDS011;73534;52.584;13.392;2023-12-14T12:44:56;19.45;;;11.73;;
83560;SDS011;73534;52.584;13.392;2023-12-14T12:47:21;16.17;;;11.60;;
83560;SDS011;73534;52.584;13.392;2023-12-14T12:49:46;18.73;;;11.32;;
83560;SDS011;73534;52.584;13.392;2023-12-14T12:52:11;18.15;;;11.40;;
83560;SDS011;73534;52.584;13.392;2023-12-14T12:54:37;20.15;;;11.20;;
83560;SDS011;73534;52.584;13.392;2023-12-14T12:57:02;22.70;;;13.25;;
83560;SDS011;73534;52.584;13.392;2023-12-14T12:59:27;16.25;;;11.20;;
83560;SDS011;73534;52.584;13.392;2023-12-14T13:01:53;17.40;;;13.70;;
83560;SDS011;73534;52.584;13.392;2023-12-14T13:04:19;18.20;;;12.02;;
83560;SDS011;73534;52.584;13.392;2023-12-14T13:06:46;18.20;;;12.02;;
83560;SDS011;73534;52.584;13.392;2023-12-14T13:09:13;18.83;;;12.75;;
83560;SDS011;73534;52.584;13.392;2023-12-14T13:11:39;20.38;;;12.75;;
83560;SDS011;73534;52.584;13.392;2023-12-14T13:14:04;19.55;;;11.70;;
83560;SDS011;73534;52.584;13.392;2023-12-14T13:16:32;24.00;;;12.77;;
83560;SDS011;73534;52.584;13.392;2023-12-14T13:18:58;15.55;;;12.05;;
83560;SDS011;73534;52.584;13.392;2023-12-14T13:21:23;17.58;;;11.18;;
83560;SDS011;73534;52.584;13.392;2023-12-14T13:23:49;20.35;;;11.55;;
83560;SDS011;73534;52.584;13.392;2023-12-14T13:26:15;19.33;;;12.20;;
83560;SDS011;73534;52.584;13.392;2023-12-14T13:28:41;20.63;;;12.27;;
83560;SDS011;73534;52.584;13.392;2023-12-14T13:31:06;20.00;;;12.23;;
83560;SDS011;73534;52.584;13.392;2023-12-14T13:33:31;16.35;;;11.65;;
83560;SDS011;73534;52.584;13.392;2023-12-14T13:35:57;16.35;;;10.95;;
83560;SDS011;73534;52.584;13.392;2023-12-14T13:38:22;18.45;;;12.77;;
83560;SDS011;73534;52.584;13.392;2023-12-14T13:40:47;20.45;;;11.77;;
83560;SDS011;73534;52.584;13.392;2023-12-14T13:43:12;17.15;;;12.43;;
83560;SDS011;73534;52.584;13.392;2023-12-14T13:45:38;16.52;;;12.60;;
83560;SDS011;73534;52.584;13.392;2023-12-14T13:48:04;18.98;;;11.68;;
83560;SDS011;73534;52.584;13.392;2023-12-14T13:50:29;18.73;;;12.32;;
83560;SDS011;73534;52.584;13.392;2023-12-14T13:52:54;19.75;;;12.70;;
83560;SDS011;73534;52.584;13.392;2023-12-14T13:55:20;22.10;;;11.90;;
83560;SDS011;73534;52.584;13.392;2023-12-14T13:57:46;19.52;;;11.60;;
83560;SDS011;73534;52.584;13.392;2023-12-14T14:00:12;17.33;;;12.10;;
83560;SDS011;73534;52.584;13.392;2023-12-14T14:02:38;15.93;;;10.80;;
83560;SDS011;73534;52.584;13.392;2023-12-14T14:05:03;18.15;;;12.18;;
83560;SDS011;73534;52.584;13.392;2023-12-14T14:07:29;16.27;;;10.45;;
83560;SDS011;73534;52.584;13.392;2023-12-14T14:09:54;20.33;;;11.43;;
83560;SDS011;73534;52.584;13.392;2023-12-14T14:12:20;18.40;;;12.48;;
83560;SDS011;73534;52.584;13.392;2023-12-14T14:14:45;17.33;;;11.43;;
83560;SDS011;73534;52.584;13.392;2023-12-14T14:17:10;18.58;;;12.02;;
83560;SDS011;73534;52.584;13.392;2023-12-14T14:19:36;16.83;;;12.18;;
83560;SDS011;73534;52.584;13.392;2023-12-14T14:22:01;20.15;;;12.43;;